Burnwood, New York
Current Conditions -  °F | °C
As of 9:15 AM on Tuesday 21 Oct 2014 (Local Time) from KMSV Reporting Station
Overcast Overcast  
Wind Chill:   Ceiling: 2800
Heat Index:   Visibility: 1.5mi
Dew Point:   Wind: 5mph
Humidity: 100%   Direction: 90°E
Pressure: 29.9"   Gusts: NA
Location:  41.9811°N, 75.0952°W
Report Text: KMSV 211315Z AUTO 09004KT 1 1/2SM SCT003 BKN028 OVC050 07/07 A2990 RMK AO1
Loading
Personal Weather Stations






























Interactive Weather Map
Tropical Storm Tracking
New forecast layout! Learn more

10-Day Weather Forecast

Advertisements
Track Severe Weather on mobile